Waverly, New York
Current Conditions -  °F | °C
As of 7:53 PM on Wednesday 22 Oct 2014 (Local Time) from KELM Reporting Station
Overcast Overcast  
Wind Chill: 43°   Ceiling: 1200
Heat Index: 48°   Visibility: 10mi
Dew Point: 44°   Wind: 10mph
Humidity: 86%   Direction: 360°N
Pressure: 30.09"   Gusts: 23mph
Location:  42.01°N, 76.53°W
Report Text: KELM 222353Z 36009G20KT 10SM OVC012 09/07 A3009 RMK AO2 SLP194 T00890067 10094 20089 56004
Loading
Personal Weather Stations






























Interactive Weather Map
Tropical Storm Tracking
New forecast layout! Learn more

10-Day Weather Forecast

Advertisements
Track Severe Weather on mobile